createdAt,value
2018-12-13T00:00:45.221Z,304.00
2018-12-13T00:01:45.282Z,305.07
2018-12-13T00:02:45.214Z,304.60
2018-12-13T00:03:45.175Z,304.68
2018-12-13T00:04:45.195Z,305.10
2018-12-13T00:05:45.159Z,304.27
2018-12-13T00:06:45.161Z,304.57
2018-12-13T00:07:45.133Z,305.15
2018-12-13T00:08:45.187Z,304.17
2018-12-13T00:09:45.166Z,304.81
2018-12-13T00:10:54.320Z,304.53
2018-12-13T00:11:45.091Z,304.60
2018-12-13T00:12:45.385Z,304.86
2018-12-13T00:13:45.102Z,304.72
2018-12-13T00:14:45.099Z,304.44
2018-12-13T00:15:54.358Z,304.96
2018-12-13T00:16:45.044Z,304.82
2018-12-13T00:17:45.032Z,304.77
2018-12-13T00:18:45.040Z,304.07
2018-12-13T00:19:45.040Z,304.25
2018-12-13T00:20:45.019Z,304.84
2018-12-13T00:21:44.988Z,303.59
2018-12-13T00:22:52.721Z,304.24
2018-12-13T00:23:45.045Z,304.62
2018-12-13T00:24:45.166Z,304.86
2018-12-13T00:25:45.078Z,304.33
2018-12-13T00:26:45.010Z,304.37
2018-12-13T00:27:45.021Z,304.27
2018-12-13T00:28:44.933Z,304.32
2018-12-13T00:29:45.030Z,304.17
2018-12-13T00:30:45.004Z,304.89
2018-12-13T00:31:45.063Z,304.35
2018-12-13T00:32:44.962Z,304.12
2018-12-13T00:33:44.940Z,304.27
2018-12-13T00:34:44.902Z,304.09
2018-12-13T00:35:44.932Z,304.32
2018-12-13T00:36:44.884Z,304.33
2018-12-13T00:37:44.898Z,304.19
2018-12-13T00:38:44.906Z,304.20
2018-12-13T00:39:44.898Z,304.47
2018-12-13T00:40:44.875Z,304.33
2018-12-13T00:41:44.850Z,304.04
2018-12-13T00:42:44.964Z,303.87
2018-12-13T00:43:44.793Z,304.42
2018-12-13T00:44:44.910Z,304.50
2018-12-13T00:45:44.798Z,304.53
2018-12-13T00:46:44.749Z,304.85
2018-12-13T00:47:44.918Z,304.46
2018-12-13T00:48:44.750Z,304.43
2018-12-13T00:49:44.859Z,304.45
2018-12-13T00:50:45.081Z,304.10
2018-12-13T00:51:45.010Z,305.10
2018-12-13T00:52:44.712Z,304.51
2018-12-13T00:53:44.693Z,304.68
2018-12-13T00:54:44.672Z,304.35
2018-12-13T00:55:44.702Z,305.00
2018-12-13T00:56:44.775Z,304.90
2018-12-13T00:57:44.690Z,304.57
2018-12-13T00:58:44.787Z,304.52
2018-12-13T00:59:44.857Z,304.16
2018-12-13T01:00:45.323Z,304.43
2018-12-13T01:01:44.919Z,304.16
2018-12-13T01:02:44.812Z,304.87
2018-12-13T01:03:44.589Z,304.53
2018-12-13T01:04:44.578Z,305.13
2018-12-13T01:05:44.558Z,304.91
2018-12-13T01:06:46.157Z,304.08
2018-12-13T01:07:44.533Z,304.32
2018-12-13T01:08:44.602Z,304.41
2018-12-13T01:09:44.536Z,304.38
2018-12-13T01:10:44.594Z,304.42
2018-12-13T01:11:44.514Z,304.42
2018-12-13T01:12:44.532Z,304.65
2018-12-13T01:13:44.516Z,304.70
2018-12-13T01:14:44.440Z,304.70
2018-12-13T01:15:44.506Z,304.45
2018-12-13T01:16:44.460Z,304.70
2018-12-13T01:17:44.537Z,304.39
2018-12-13T01:18:44.475Z,304.39
2018-12-13T01:19:44.547Z,304.64
2018-12-13T01:20:44.461Z,304.89
2018-12-13T01:21:44.401Z,304.70
2018-12-13T01:22:44.457Z,304.10
2018-12-13T01:23:44.464Z,304.50
2018-12-13T01:24:44.475Z,304.17
2018-12-13T01:25:44.384Z,304.37
2018-12-13T01:26:44.336Z,304.83
2018-12-13T01:27:44.330Z,304.50
2018-12-13T01:28:44.336Z,304.11
2018-12-13T01:29:44.335Z,304.04
2018-12-13T01:30:44.338Z,303.93
2018-12-13T01:31:44.287Z,304.09
2018-12-13T01:32:44.295Z,304.14
2018-12-13T01:33:44.291Z,304.16
2018-12-13T01:34:44.248Z,304.63
2018-12-13T01:35:44.289Z,304.40
2018-12-13T01:36:44.210Z,304.39
2018-12-13T01:37:46.071Z,304.28
2018-12-13T01:38:44.218Z,304.49
2018-12-13T01:39:44.203Z,304.36
2018-12-13T01:40:44.827Z,304.20
2018-12-13T01:41:44.200Z,303.70
2018-12-13T01:42:44.178Z,303.90
2018-12-13T01:43:44.220Z,303.80
2018-12-13T01:44:44.211Z,304.31
2018-12-13T01:45:44.368Z,304.38
2018-12-13T01:46:44.234Z,304.25
2018-12-13T01:47:44.163Z,304.37
2018-12-13T01:48:44.223Z,304.14
2018-12-13T01:49:44.227Z,304.76
2018-12-13T01:50:44.271Z,304.52
2018-12-13T01:51:44.175Z,304.15
2018-12-13T01:52:44.172Z,304.52
2018-12-13T01:53:44.101Z,304.11
2018-12-13T01:54:44.823Z,303.97
2018-12-13T01:55:44.103Z,304.65
2018-12-13T01:56:44.071Z,304.29
2018-12-13T01:59:03.178Z,302.06
2018-12-13T02:01:14.448Z,301.45
2018-12-13T02:02:14.487Z,304.30
2018-12-13T02:03:14.254Z,303.92
2018-12-13T02:04:14.142Z,305.27
2018-12-13T02:05:14.100Z,303.95
2018-12-13T02:06:14.262Z,304.19
2018-12-13T02:07:14.309Z,303.91
2018-12-13T02:08:14.118Z,303.43
2018-12-13T02:09:14.092Z,304.78
2018-12-13T02:10:14.122Z,304.17
2018-12-13T02:11:14.040Z,304.05
2018-12-13T02:12:14.060Z,303.78
2018-12-13T02:13:14.028Z,304.00
2018-12-13T02:14:14.059Z,304.45
2018-12-13T02:15:14.028Z,304.52
2018-12-13T02:16:14.042Z,304.22
2018-12-13T02:17:13.979Z,303.78
2018-12-13T02:18:14.000Z,304.07
2018-12-13T02:19:14.025Z,304.22
2018-12-13T02:20:13.987Z,304.37
2018-12-13T02:21:13.953Z,304.49
2018-12-13T02:22:13.952Z,304.39
2018-12-13T02:23:13.926Z,304.61
2018-12-13T02:24:13.927Z,304.30
2018-12-13T02:25:13.895Z,304.68
2018-12-13T02:26:13.917Z,304.89
2018-12-13T02:27:13.947Z,304.53
2018-12-13T02:28:13.867Z,304.34
2018-12-13T02:29:13.857Z,304.19
2018-12-13T02:30:13.877Z,304.39
2018-12-13T02:31:13.879Z,303.85
2018-12-13T02:32:13.861Z,304.76
2018-12-13T02:33:13.853Z,304.06
2018-12-13T02:34:13.838Z,304.73
2018-12-13T02:35:13.807Z,304.33
2018-12-13T02:36:13.807Z,304.92
2018-12-13T02:37:13.788Z,304.82
2018-12-13T02:38:13.793Z,304.79
2018-12-13T02:39:13.782Z,304.50
2018-12-13T02:40:23.503Z,305.05
2018-12-13T02:41:13.738Z,304.47
2018-12-13T02:42:23.065Z,304.38
2018-12-13T02:43:23.064Z,304.45
2018-12-13T02:44:23.088Z,304.68
2018-12-13T02:45:22.645Z,304.13
2018-12-13T02:46:13.711Z,304.99
2018-12-13T02:47:23.134Z,304.70
2018-12-13T02:48:13.659Z,304.67
2018-12-13T02:49:13.698Z,305.03
2018-12-13T02:50:13.668Z,304.48
2018-12-13T02:51:13.738Z,304.80
2018-12-13T02:52:13.647Z,304.63
2018-12-13T02:53:13.622Z,304.92
2018-12-13T02:54:13.611Z,304.39
2018-12-13T02:55:13.599Z,304.30
2018-12-13T02:56:13.588Z,304.15
2018-12-13T02:57:13.599Z,304.15
2018-12-13T02:58:13.585Z,304.06
2018-12-13T02:59:13.565Z,304.29
2018-12-13T03:00:13.537Z,304.05
2018-12-13T03:01:13.554Z,304.36
2018-12-13T03:02:13.540Z,304.19
2018-12-13T03:03:13.516Z,303.95
2018-12-13T03:04:13.491Z,303.93
2018-12-13T03:05:13.526Z,304.33
2018-12-13T03:06:14.216Z,304.38
2018-12-13T03:07:14.296Z,304.10
2018-12-13T03:08:13.494Z,303.82
2018-12-13T03:09:13.433Z,304.05
2018-12-13T03:10:13.435Z,304.39
2018-12-13T03:11:13.434Z,304.55
2018-12-13T03:12:13.431Z,304.63
2018-12-13T03:13:13.411Z,304.40
2018-12-13T03:14:13.407Z,304.24
2018-12-13T03:15:13.371Z,304.17
2018-12-13T03:16:13.405Z,304.54
2018-12-13T03:17:13.409Z,304.47
2018-12-13T03:18:13.370Z,304.32
2018-12-13T03:19:13.365Z,303.97
2018-12-13T03:20:13.377Z,304.31
2018-12-13T03:21:13.333Z,304.17
2018-12-13T03:22:13.285Z,303.88
2018-12-13T03:23:13.369Z,304.33
2018-12-13T03:24:13.282Z,303.99
2018-12-13T03:25:13.295Z,304.26
2018-12-13T03:26:13.282Z,304.55
2018-12-13T03:27:13.270Z,303.72
2018-12-13T03:28:13.268Z,304.42
2018-12-13T03:29:13.281Z,304.36
2018-12-13T03:30:13.248Z,304.96
2018-12-13T03:31:13.239Z,304.05
2018-12-13T03:32:13.216Z,304.63
2018-12-13T03:33:13.236Z,304.63
2018-12-13T03:34:13.193Z,304.60
2018-12-13T03:35:13.205Z,304.34
2018-12-13T03:36:13.172Z,303.94
2018-12-13T03:37:20.292Z,304.73
2018-12-13T03:38:14.184Z,304.08
2018-12-13T03:39:13.134Z,304.01
2018-12-13T03:40:13.190Z,304.01
2018-12-13T03:41:13.125Z,304.45
2018-12-13T03:42:13.159Z,303.82
2018-12-13T03:43:13.138Z,304.42
2018-12-13T03:44:13.086Z,304.50
2018-12-13T03:45:13.101Z,303.72
2018-12-13T03:46:13.109Z,304.08
2018-12-13T03:47:13.049Z,304.10
2018-12-13T03:48:13.074Z,304.29
2018-12-13T03:49:13.020Z,304.65
2018-12-13T03:50:20.685Z,304.73
2018-12-13T03:51:22.204Z,304.29
2018-12-13T03:52:13.038Z,304.49
2018-12-13T03:53:12.997Z,303.88
2018-12-13T03:54:12.982Z,304.06
2018-12-13T03:55:12.965Z,304.36
2018-12-13T03:56:13.007Z,304.16
2018-12-13T03:57:12.939Z,304.07
2018-12-13T03:58:21.731Z,304.54
2018-12-13T03:59:12.977Z,304.22
2018-12-13T04:00:12.953Z,304.89
2018-12-13T04:01:12.903Z,305.02
2018-12-13T04:02:12.896Z,304.60
2018-12-13T04:03:12.920Z,304.16
2018-12-13T04:04:12.898Z,304.54
2018-12-13T04:05:12.847Z,304.79
2018-12-13T04:06:12.869Z,304.46
2018-12-13T04:07:12.851Z,303.85
2018-12-13T04:08:12.821Z,304.04
2018-12-13T04:09:12.811Z,304.23
2018-12-13T04:10:12.786Z,303.95
2018-12-13T04:11:12.818Z,304.21
2018-12-13T04:12:12.776Z,304.49
2018-12-13T04:13:12.779Z,304.50
2018-12-13T04:14:12.764Z,304.51
2018-12-13T04:15:12.762Z,303.91
2018-12-13T04:16:12.773Z,304.70
2018-12-13T04:17:12.733Z,304.82
2018-12-13T04:18:12.732Z,304.23
2018-12-13T04:19:12.696Z,304.68
2018-12-13T04:20:12.717Z,304.56
2018-12-13T04:21:12.760Z,304.42
2018-12-13T04:22:12.724Z,304.48
2018-12-13T04:23:12.684Z,303.86
2018-12-13T04:24:12.665Z,304.61
2018-12-13T04:25:12.661Z,304.52
2018-12-13T04:26:12.642Z,304.83
2018-12-13T04:27:12.662Z,304.71
2018-12-13T04:28:12.643Z,304.16
2018-12-13T04:29:12.614Z,304.90
2018-12-13T04:30:12.591Z,304.89
2018-12-13T04:31:12.590Z,304.44
2018-12-13T04:32:12.657Z,304.88
2018-12-13T04:33:12.697Z,304.80
2018-12-13T04:34:12.616Z,304.73
2018-12-13T04:35:12.562Z,304.16
2018-12-13T04:36:13.451Z,305.34
2018-12-13T04:37:12.577Z,304.89
2018-12-13T04:38:12.534Z,304.57
2018-12-13T04:39:12.572Z,304.77
2018-12-13T04:40:12.513Z,304.40
2018-12-13T04:41:12.564Z,303.85
2018-12-13T04:42:12.469Z,303.89
2018-12-13T04:43:12.512Z,304.33
2018-12-13T04:44:12.480Z,305.40
2018-12-13T04:45:12.479Z,305.15
2018-12-13T04:46:12.437Z,305.61
2018-12-13T04:47:12.463Z,305.37
2018-12-13T04:48:12.426Z,304.47
2018-12-13T04:49:12.455Z,305.01
2018-12-13T04:50:12.558Z,305.06
2018-12-13T04:51:12.408Z,304.61
2018-12-13T04:52:12.399Z,304.86
2018-12-13T04:53:12.390Z,304.76
2018-12-13T04:54:12.346Z,304.85
2018-12-13T04:55:12.343Z,305.04
2018-12-13T04:56:12.732Z,305.21
2018-12-13T04:57:12.375Z,305.12
2018-12-13T04:58:12.316Z,305.31
2018-12-13T04:59:12.310Z,304.66
2018-12-13T05:00:12.318Z,304.85
2018-12-13T05:01:12.347Z,304.65
2018-12-13T05:02:12.349Z,304.57
2018-12-13T05:03:12.291Z,305.18
2018-12-13T05:04:12.264Z,305.02
2018-12-13T05:05:12.272Z,305.07
2018-12-13T05:06:12.423Z,304.48
2018-12-13T05:07:12.292Z,305.10
2018-12-13T05:08:12.206Z,304.92
2018-12-13T05:09:12.222Z,304.65
2018-12-13T05:10:12.204Z,304.91
2018-12-13T05:11:12.212Z,304.35
2018-12-13T05:12:12.181Z,304.74
2018-12-13T05:13:12.156Z,304.15
2018-12-13T05:14:12.150Z,304.44
2018-12-13T05:15:12.176Z,304.72
2018-12-13T05:16:12.145Z,305.10
2018-12-13T05:17:12.178Z,304.25
2018-12-13T05:18:12.122Z,305.15
2018-12-13T05:19:12.091Z,305.37
2018-12-13T05:20:12.090Z,305.03
2018-12-13T05:21:12.112Z,305.27
2018-12-13T05:22:12.071Z,305.20
2018-12-13T05:23:12.103Z,304.79
2018-12-13T05:24:12.043Z,304.87
2018-12-13T05:25:12.046Z,305.04
2018-12-13T05:26:12.034Z,305.25
2018-12-13T05:27:12.039Z,305.05
2018-12-13T05:28:12.019Z,304.73
2018-12-13T05:29:11.996Z,304.61
2018-12-13T05:30:11.984Z,304.92
2018-12-13T05:31:11.980Z,304.53
2018-12-13T05:32:12.001Z,304.63
2018-12-13T05:33:11.979Z,304.93
2018-12-13T05:34:11.917Z,304.67
2018-12-13T05:35:11.970Z,304.91
2018-12-13T05:36:11.907Z,304.58
2018-12-13T05:37:11.985Z,304.84
2018-12-13T05:38:11.926Z,305.11
2018-12-13T05:39:11.915Z,305.01
2018-12-13T05:40:11.876Z,305.05
2018-12-13T05:41:11.903Z,305.86
2018-12-13T05:42:11.853Z,305.24
2018-12-13T05:43:11.861Z,305.62
2018-12-13T05:44:11.848Z,305.46
2018-12-13T05:45:11.818Z,306.37
2018-12-13T05:46:11.823Z,304.61
2018-12-13T05:47:11.795Z,305.44
2018-12-13T05:48:11.808Z,305.13
2018-12-13T05:49:11.793Z,305.35
2018-12-13T05:50:11.802Z,305.20
2018-12-13T05:51:11.828Z,305.38
2018-12-13T05:52:11.742Z,305.15
2018-12-13T05:53:11.780Z,305.00
2018-12-13T05:54:11.731Z,305.82
2018-12-13T05:55:11.718Z,305.31
2018-12-13T05:56:11.717Z,305.03
2018-12-13T05:57:11.691Z,304.54
2018-12-13T05:58:11.731Z,305.32
2018-12-13T05:59:11.664Z,305.24
2018-12-13T06:00:11.702Z,304.67
2018-12-13T06:01:11.672Z,305.59
2018-12-13T06:02:11.702Z,305.81
2018-12-13T06:03:11.654Z,305.63
2018-12-13T06:04:11.659Z,305.95
2018-12-13T06:05:11.630Z,305.46
2018-12-13T06:06:11.700Z,305.10
2018-12-13T06:07:11.662Z,305.73
2018-12-13T06:08:11.604Z,305.29
2018-12-13T06:09:11.604Z,305.45
2018-12-13T06:10:11.626Z,304.86
2018-12-13T06:11:11.561Z,304.94
2018-12-13T06:12:11.557Z,304.77
2018-12-13T06:13:11.961Z,304.59
2018-12-13T06:14:11.524Z,304.45
2018-12-13T06:16:28.646Z,302.58
2018-12-13T06:17:28.589Z,304.61
2018-12-13T06:18:28.895Z,304.92
2018-12-13T06:19:28.603Z,304.95
2018-12-13T06:21:57.946Z,304.36
2018-12-13T06:22:57.901Z,304.53
2018-12-13T06:23:57.913Z,304.51
2018-12-13T06:24:57.914Z,304.50
2018-12-13T06:25:57.896Z,304.53
2018-12-13T06:26:57.890Z,305.00
2018-12-13T06:28:06.926Z,304.59
2018-12-13T06:28:57.857Z,304.20
2018-12-13T06:29:59.050Z,304.37
2018-12-13T06:30:57.837Z,304.69
2018-12-13T06:31:57.815Z,304.65
2018-12-13T06:32:57.897Z,304.74
2018-12-13T06:33:57.809Z,304.92
2018-12-13T06:34:58.066Z,304.85
2018-12-13T06:35:57.755Z,304.52
2018-12-13T06:36:57.779Z,304.64
2018-12-13T06:38:01.302Z,305.01
2018-12-13T06:38:57.948Z,304.77
2018-12-13T06:39:57.809Z,304.98
2018-12-13T06:40:57.788Z,304.70
2018-12-13T06:41:57.825Z,304.66
2018-12-13T06:42:57.727Z,305.53
2018-12-13T06:43:57.708Z,305.02
2018-12-13T06:44:57.729Z,305.09
2018-12-13T06:45:57.689Z,305.59
2018-12-13T06:46:58.334Z,305.26
2018-12-13T06:47:57.833Z,304.86
2018-12-13T06:49:00.892Z,305.07
2018-12-13T06:49:57.709Z,304.91
2018-12-13T06:51:09.395Z,304.48
2018-12-13T06:51:59.647Z,305.48
2018-12-13T06:52:58.077Z,305.52
2018-12-13T06:53:57.690Z,305.21
2018-12-13T06:54:57.633Z,305.36
2018-12-13T06:55:57.593Z,306.02
2018-12-13T06:56:57.635Z,305.81
2018-12-13T06:57:57.572Z,305.25
2018-12-13T06:58:57.542Z,305.95
2018-12-13T06:59:57.549Z,305.12
2018-12-13T07:00:57.539Z,305.32
2018-12-13T07:01:57.553Z,305.16
2018-12-13T07:02:57.670Z,305.61
2018-12-13T07:03:57.533Z,305.25
2018-12-13T07:04:57.602Z,305.91
2018-12-13T07:05:57.488Z,305.32
2018-12-13T07:06:57.503Z,305.82
2018-12-13T07:07:57.681Z,304.91
2018-12-13T07:08:57.455Z,305.14
2018-12-13T07:09:57.572Z,305.30
2018-12-13T07:10:57.465Z,305.26
2018-12-13T07:11:57.419Z,305.40
2018-12-13T07:12:57.627Z,305.92
2018-12-13T07:13:57.486Z,305.74
2018-12-13T07:14:57.476Z,305.49
2018-12-13T07:15:57.399Z,305.65
2018-12-13T07:16:57.355Z,305.10
2018-12-13T07:17:57.345Z,305.42
2018-12-13T07:18:57.340Z,305.85
2018-12-13T07:19:57.360Z,305.70
2018-12-13T07:20:57.349Z,305.62
2018-12-13T07:21:57.343Z,305.16
2018-12-13T07:22:57.345Z,305.54
2018-12-13T07:23:57.262Z,304.43
2018-12-13T07:24:57.472Z,304.94
2018-12-13T07:25:58.267Z,305.13
2018-12-13T07:26:57.411Z,305.29
2018-12-13T07:27:57.406Z,305.66
2018-12-13T07:28:57.289Z,305.72
2018-12-13T07:29:57.551Z,305.88
2018-12-13T07:30:57.267Z,305.53
2018-12-13T07:31:57.256Z,306.07
2018-12-13T07:32:57.297Z,305.83
2018-12-13T07:33:57.198Z,305.66
2018-12-13T07:35:01.322Z,305.12
2018-12-13T07:35:57.208Z,305.17
2018-12-13T07:36:57.191Z,305.77
2018-12-13T07:37:57.155Z,305.69
2018-12-13T07:38:57.979Z,305.36
2018-12-13T07:39:57.142Z,305.56
2018-12-13T07:40:57.144Z,305.75
2018-12-13T07:41:57.150Z,305.07
2018-12-13T07:42:57.150Z,305.16
2018-12-13T07:43:57.081Z,305.23
2018-12-13T07:44:57.101Z,305.55
2018-12-13T07:45:57.099Z,305.30
2018-12-13T07:46:57.037Z,305.36
2018-12-13T07:47:57.063Z,305.05
2018-12-13T07:48:57.050Z,304.99
2018-12-13T07:49:57.034Z,304.96
2018-12-13T07:50:57.060Z,304.66
2018-12-13T07:51:57.088Z,305.04
2018-12-13T07:52:57.007Z,304.80
2018-12-13T07:53:56.984Z,305.33
2018-12-13T07:54:57.010Z,304.39
2018-12-13T07:55:57.047Z,304.33
2018-12-13T07:56:57.023Z,304.52
2018-12-13T07:57:56.986Z,305.22
2018-12-13T07:58:57.025Z,304.72
2018-12-13T07:59:56.955Z,305.21
2018-12-13T08:00:56.895Z,305.20
2018-12-13T08:01:57.016Z,304.80
2018-12-13T08:02:56.879Z,304.87
2018-12-13T08:03:56.876Z,304.98
2018-12-13T08:04:57.167Z,304.24
2018-12-13T08:05:56.839Z,304.33
2018-12-13T08:06:56.839Z,305.09
2018-12-13T08:07:56.848Z,304.59
2018-12-13T08:08:56.819Z,304.70
2018-12-13T08:09:56.843Z,304.08
2018-12-13T08:10:56.816Z,304.43
2018-12-13T08:11:56.854Z,304.66
2018-12-13T08:12:56.775Z,305.23
2018-12-13T08:13:56.798Z,304.84
2018-12-13T08:14:56.764Z,305.09
2018-12-13T08:15:56.753Z,304.27
2018-12-13T08:16:56.714Z,304.57
2018-12-13T08:17:56.728Z,305.10
2018-12-13T08:18:56.725Z,304.29
2018-12-13T08:19:56.761Z,304.84
2018-12-13T08:20:56.715Z,304.43
2018-12-13T08:21:56.706Z,304.65
2018-12-13T08:22:56.661Z,304.22
2018-12-13T08:23:56.853Z,304.51
2018-12-13T08:24:56.666Z,303.96
2018-12-13T08:25:56.711Z,304.38
2018-12-13T08:26:56.650Z,304.41
2018-12-13T08:27:56.641Z,304.23
2018-12-13T08:28:56.620Z,304.49
2018-12-13T08:29:56.595Z,304.31
2018-12-13T08:30:56.584Z,305.45
2018-12-13T08:31:56.620Z,304.49
2018-12-13T08:32:56.567Z,304.64
2018-12-13T08:33:56.559Z,304.62
2018-12-13T08:34:56.537Z,305.10
2018-12-13T08:35:56.529Z,304.73
2018-12-13T08:36:56.522Z,305.35
2018-12-13T08:37:56.515Z,304.59
2018-12-13T08:38:56.560Z,305.24
2018-12-13T08:39:56.503Z,305.10
2018-12-13T08:40:56.484Z,305.24
2018-12-13T08:41:56.462Z,304.79
2018-12-13T08:42:56.456Z,304.58
2018-12-13T08:43:56.483Z,304.62
2018-12-13T08:44:56.443Z,305.41
2018-12-13T08:45:56.473Z,304.59
2018-12-13T08:46:56.426Z,304.44
2018-12-13T08:47:56.419Z,305.42
2018-12-13T08:49:05.956Z,304.37
2018-12-13T08:49:56.384Z,305.20
2018-12-13T08:50:56.349Z,304.92
2018-12-13T08:51:56.346Z,305.43
2018-12-13T08:52:56.342Z,304.87
2018-12-13T08:53:56.355Z,304.75
2018-12-13T08:54:56.426Z,305.03
2018-12-13T08:55:56.336Z,305.69
2018-12-13T08:56:56.320Z,304.97
2018-12-13T08:57:56.343Z,304.87
2018-12-13T08:59:05.457Z,305.18
2018-12-13T08:59:56.256Z,304.78
2018-12-13T09:00:56.261Z,304.95
2018-12-13T09:01:56.237Z,304.73
2018-12-13T09:02:56.232Z,304.90
2018-12-13T09:03:56.218Z,304.76
2018-12-13T09:04:56.235Z,305.14
2018-12-13T09:05:56.277Z,304.87
2018-12-13T09:06:57.025Z,304.89
2018-12-13T09:07:56.171Z,304.86
2018-12-13T09:08:56.156Z,304.61
2018-12-13T09:09:56.183Z,304.80
2018-12-13T09:10:56.151Z,304.76
2018-12-13T09:11:56.155Z,304.24
2018-12-13T09:12:56.124Z,304.22
2018-12-13T09:13:56.108Z,304.18
2018-12-13T09:14:56.122Z,304.59
2018-12-13T09:15:56.097Z,303.93
2018-12-13T09:16:56.105Z,304.60
2018-12-13T09:17:56.074Z,304.46
2018-12-13T09:18:56.095Z,304.58
2018-12-13T09:19:56.046Z,304.23
2018-12-13T09:20:56.054Z,304.43
2018-12-13T09:21:56.145Z,304.15
2018-12-13T09:22:56.028Z,304.84
2018-12-13T09:23:56.005Z,304.52
2018-12-13T09:24:55.995Z,304.73
2018-12-13T09:25:55.989Z,304.62
2018-12-13T09:26:55.992Z,304.67
2018-12-13T09:27:56.002Z,304.86
2018-12-13T09:28:55.949Z,304.84
2018-12-13T09:29:55.944Z,305.54
2018-12-13T09:30:55.929Z,305.31
2018-12-13T09:31:55.919Z,305.50
2018-12-13T09:32:55.906Z,305.37
2018-12-13T09:33:55.920Z,305.27
2018-12-13T09:34:55.892Z,304.65
2018-12-13T09:35:55.870Z,304.96
2018-12-13T09:36:55.889Z,305.46
2018-12-13T09:37:55.862Z,304.90
2018-12-13T09:38:55.860Z,304.95
2018-12-13T09:39:55.843Z,304.95
2018-12-13T09:40:55.827Z,304.16
2018-12-13T09:41:55.819Z,305.30
2018-12-13T09:42:55.811Z,305.20
2018-12-13T09:43:55.816Z,304.68
2018-12-13T09:44:55.796Z,305.57
2018-12-13T09:45:55.767Z,304.92
2018-12-13T09:46:55.831Z,304.81
2018-12-13T09:47:55.758Z,304.92
2018-12-13T09:48:55.750Z,304.92
2018-12-13T09:49:55.749Z,305.33
2018-12-13T09:50:55.763Z,304.63
2018-12-13T09:51:55.758Z,304.83
2018-12-13T09:52:55.752Z,304.29
2018-12-13T09:53:55.725Z,304.84
2018-12-13T09:54:55.701Z,305.07
2018-12-13T09:55:55.707Z,304.65
2018-12-13T09:56:55.687Z,305.62
2018-12-13T09:57:55.653Z,305.17
2018-12-13T09:58:55.639Z,304.84
2018-12-13T09:59:55.645Z,305.30
2018-12-13T10:00:55.645Z,305.21
2018-12-13T10:01:55.622Z,304.94
2018-12-13T10:02:55.608Z,305.20
2018-12-13T10:03:55.607Z,305.73
2018-12-13T10:04:55.613Z,305.69
2018-12-13T10:05:55.574Z,305.30
2018-12-13T10:06:55.558Z,305.19
2018-12-13T10:07:55.554Z,304.81
2018-12-13T10:08:55.534Z,304.57
2018-12-13T10:09:55.554Z,305.26
2018-12-13T10:10:55.580Z,305.08
2018-12-13T10:11:55.518Z,304.82
2018-12-13T10:12:55.504Z,304.34
2018-12-13T10:13:55.538Z,304.84
2018-12-13T10:14:55.491Z,304.77
2018-12-13T10:15:55.501Z,304.63
2018-12-13T10:16:55.470Z,305.30
2018-12-13T10:17:55.466Z,304.77
2018-12-13T10:18:55.444Z,305.00
2018-12-13T10:19:55.437Z,304.60
2018-12-13T10:20:55.456Z,304.96
2018-12-13T10:21:55.423Z,305.08
2018-12-13T10:22:55.405Z,304.67
2018-12-13T10:23:55.383Z,304.48
2018-12-13T10:24:55.394Z,304.62
2018-12-13T10:25:59.573Z,304.40
2018-12-13T10:26:55.378Z,304.30
2018-12-13T10:27:55.380Z,304.36
2018-12-13T10:28:55.338Z,304.85
2018-12-13T10:29:55.366Z,304.33
2018-12-13T10:30:55.313Z,304.68
2018-12-13T10:31:55.342Z,304.34
2018-12-13T10:32:55.304Z,304.59
2018-12-13T10:33:55.281Z,304.05
2018-12-13T10:34:55.302Z,304.14
2018-12-13T10:35:55.269Z,304.11
2018-12-13T10:36:55.240Z,304.14
2018-12-13T10:37:55.290Z,304.34
2018-12-13T10:38:55.253Z,304.61
2018-12-13T10:39:55.219Z,304.80
2018-12-13T10:40:55.251Z,304.21
2018-12-13T10:41:55.198Z,304.47
2018-12-13T10:42:55.184Z,304.38
2018-12-13T10:43:55.269Z,304.00
2018-12-13T10:44:55.183Z,304.44
2018-12-13T10:45:55.165Z,304.30
2018-12-13T10:46:55.156Z,304.06
2018-12-13T10:47:55.157Z,304.24
2018-12-13T10:48:55.111Z,304.49
2018-12-13T10:49:55.109Z,304.50
2018-12-13T10:50:55.153Z,304.36
2018-12-13T10:51:55.102Z,304.63
2018-12-13T10:52:55.099Z,304.20
2018-12-13T10:53:55.119Z,304.67
2018-12-13T10:54:55.060Z,304.10
2018-12-13T10:55:55.124Z,304.51
2018-12-13T10:56:55.049Z,305.05
2018-12-13T10:57:55.043Z,304.86
2018-12-13T10:58:55.027Z,305.10
2018-12-13T10:59:55.007Z,305.00
2018-12-13T11:00:54.997Z,305.22
2018-12-13T11:01:55.023Z,304.23
2018-12-13T11:02:54.978Z,304.48
2018-12-13T11:03:55.002Z,304.64
2018-12-13T11:04:54.959Z,304.89
2018-12-13T11:05:54.955Z,304.45
2018-12-13T11:06:55.026Z,305.19
2018-12-13T11:07:54.979Z,304.55
2018-12-13T11:08:59.468Z,304.01
2018-12-13T11:09:54.933Z,304.40
2018-12-13T11:10:54.923Z,304.80
2018-12-13T11:11:54.895Z,305.18
2018-12-13T11:12:54.883Z,305.06
2018-12-13T11:13:54.869Z,305.06
2018-12-13T11:14:54.854Z,304.37
2018-12-13T11:15:54.880Z,304.26
2018-12-13T11:16:54.885Z,304.76
2018-12-13T11:17:54.841Z,304.38
2018-12-13T11:18:55.443Z,304.30
2018-12-13T11:19:54.822Z,304.13
2018-12-13T11:20:54.797Z,303.98
2018-12-13T11:21:54.785Z,303.96
2018-12-13T11:22:54.772Z,304.79
2018-12-13T11:23:54.780Z,304.72
2018-12-13T11:24:54.778Z,304.19
2018-12-13T11:25:54.737Z,304.11
2018-12-13T11:26:54.785Z,304.03
2018-12-13T11:27:54.763Z,304.05
2018-12-13T11:28:54.748Z,303.51
2018-12-13T11:29:54.697Z,304.30
2018-12-13T11:30:54.716Z,304.36
2018-12-13T11:31:54.704Z,304.11
2018-12-13T11:32:54.800Z,304.02
2018-12-13T11:33:54.678Z,304.64
2018-12-13T11:34:54.685Z,303.86
2018-12-13T11:35:54.657Z,304.46
2018-12-13T11:36:54.666Z,304.29
2018-12-13T11:37:54.626Z,304.05
2018-12-13T11:38:54.635Z,303.81
2018-12-13T11:39:54.641Z,303.89
2018-12-13T11:40:54.593Z,304.02
2018-12-13T11:41:54.579Z,303.81
2018-12-13T11:42:54.573Z,303.73
2018-12-13T11:43:54.561Z,304.31
2018-12-13T11:44:54.589Z,304.30
2018-12-13T11:45:54.526Z,304.17
2018-12-13T11:46:54.520Z,304.06
2018-12-13T11:47:54.500Z,304.30
2018-12-13T11:48:54.507Z,304.80
2018-12-13T11:49:54.524Z,304.10
2018-12-13T11:50:54.518Z,303.87
2018-12-13T11:51:54.474Z,304.32
2018-12-13T11:52:54.471Z,304.68
2018-12-13T11:53:54.450Z,304.01
2018-12-13T11:54:54.508Z,304.33
2018-12-13T11:55:54.448Z,303.84
2018-12-13T11:56:54.475Z,304.33
2018-12-13T11:57:54.435Z,304.13
2018-12-13T11:58:54.431Z,304.73
2018-12-13T11:59:54.377Z,304.73
2018-12-13T12:00:54.412Z,304.26
2018-12-13T12:01:54.366Z,304.74
2018-12-13T12:02:54.352Z,304.43
2018-12-13T12:03:54.369Z,304.63
2018-12-13T12:04:54.331Z,304.41
2018-12-13T12:05:54.336Z,304.63
2018-12-13T12:06:54.322Z,304.24
2018-12-13T12:07:54.300Z,304.17
2018-12-13T12:08:54.298Z,304.06
2018-12-13T12:09:54.283Z,304.34
2018-12-13T12:10:54.335Z,304.45
2018-12-13T12:11:54.349Z,304.37
2018-12-13T12:12:54.277Z,304.29
2018-12-13T12:13:54.276Z,303.40
2018-12-13T12:14:54.291Z,304.20
2018-12-13T12:15:54.278Z,303.60
2018-12-13T12:16:54.284Z,304.18
2018-12-13T12:17:54.899Z,304.61
2018-12-13T12:18:54.253Z,303.77
2018-12-13T12:19:54.246Z,303.79
2018-12-13T12:20:54.234Z,304.02
2018-12-13T12:21:54.151Z,304.39
2018-12-13T12:22:54.229Z,303.55
2018-12-13T12:23:54.145Z,303.99
2018-12-13T12:24:54.150Z,304.14
2018-12-13T12:25:54.126Z,304.41
2018-12-13T12:26:54.169Z,303.78
2018-12-13T12:27:54.147Z,303.81
2018-12-13T12:28:54.088Z,304.03
2018-12-13T12:29:54.079Z,303.90
2018-12-13T12:30:54.073Z,304.14
2018-12-13T12:31:54.094Z,304.05
2018-12-13T12:32:54.081Z,303.39
2018-12-13T12:33:54.039Z,303.49